Mile Branch, Mississippi
Current Conditions -  °F | °C
As of 10:53 AM on Friday 24 Oct 2014 (Local Time) from KMCB Reporting Station
Clear Clear  
Wind Chill: 19°   Ceiling: Unl
Heat Index: 19°   Visibility: 10mi
Dew Point:   Wind: 7mph
Humidity: 52%   Direction: 350°N
Pressure: 30.14"   Gusts: NA
Location:  31.4031°N, 90.8369°W
Report Text: KMCB 241553Z AUTO 35006KT 10SM CLR 19/09 A3014 RMK AO2 SLP202 T01890089
Loading
Personal Weather Stations






























Interactive Weather Map
Tropical Storm Tracking
New forecast layout! Learn more

10-Day Weather Forecast

Advertisements
Track Severe Weather on mobile